Time,TemperatureF,DewpointF,PressureIn,WindDirection,WindDirectionDegrees,WindSpeedMPH,WindSpeedGustMPH,Humidity,HourlyPrecipIn,Conditions,Clouds,dailyrainin,SolarRadiationWatts/m^2,SoftwareType,DateUTC
2013-11-02 09:00:00,45.8,41.9,28.97,South,190,10.0,17.0,86,0.01,RA,,0.10,35.0,WeatherDisplay:10.37,2013-11-02 09:00:00,
2013-11-02 09:18:00,46.0,43.5,28.96,South,187,13.0,32.0,91,0.00,RA,,0.11,12.0,WeatherDisplay:10.37,2013-11-02 09:18:00,
2013-11-02 09:22:00,46.2,43.4,28.96,South,179,10.0,14.0,90,0.00,RA,,0.11,49.0,WeatherDisplay:10.37,2013-11-02 09:22:00,
2013-11-02 09:30:00,46.0,43.2,28.95,South,183,12.0,20.0,90,0.02,RA,,0.13,14.0,WeatherDisplay:10.37,2013-11-02 09:30:00,
2013-11-02 09:35:00,45.6,42.8,28.94,SSW,200,7.0,16.0,90,0.00,RA,,0.13,56.0,WeatherDisplay:10.37,2013-11-02 09:35:00,
2013-11-02 09:40:00,45.5,42.7,28.93,SSW,201,5.0,12.0,90,0.00,BKN,,0.13,60.0,WeatherDisplay:10.37,2013-11-02 09:40:00,
2013-11-02 09:45:00,45.4,42.6,28.93,SSW,194,6.0,8.0,90,0.00,BKN,,0.13,33.0,WeatherDisplay:10.37,2013-11-02 09:45:00,
2013-11-02 09:50:00,45.5,43.0,28.93,South,186,5.0,8.0,91,0.01,RA,,0.13,65.0,WeatherDisplay:10.37,2013-11-02 09:50:00,
2013-11-02 10:00:00,46.3,44.4,28.91,SE,132,6.0,12.0,93,0.00,BKN,,0.13,58.0,WeatherDisplay:10.37,2013-11-02 10:00:00,
2013-11-02 10:10:00,46.7,44.7,28.89,SSE,148,9.0,15.0,93,0.00,RA,,0.14,77.0,WeatherDisplay:10.37,2013-11-02 10:10:00,
2013-11-02 10:15:00,46.7,44.8,28.89,SSE,165,7.0,14.0,93,0.00,BKN,,0.14,72.0,WeatherDisplay:10.37,2013-11-02 10:15:00,
2013-11-02 10:20:00,46.8,44.9,28.89,South,169,3.0,12.0,93,0.00,BKN,,0.14,97.0,WeatherDisplay:10.37,2013-11-02 10:20:00,
2013-11-02 10:30:00,47.1,45.2,28.89,SW,221,7.0,9.0,93,0.02,RA,,0.16,77.0,WeatherDisplay:10.37,2013-11-02 10:30:00,
2013-11-02 10:40:00,45.6,42.8,28.93,West,276,10.0,33.0,90,0.01,RA,,0.17,9.0,WeatherDisplay:10.37,2013-11-02 10:40:00,
2013-11-02 10:45:00,44.4,42.0,28.94,West,274,9.0,15.0,91,0.01,RA,,0.18,9.0,WeatherDisplay:10.37,2013-11-02 10:45:00,
2013-11-02 10:50:00,44.1,41.9,28.95,West,273,7.0,12.0,92,0.01,RA,,0.19,28.0,WeatherDisplay:10.37,2013-11-02 10:50:00,
2013-11-02 11:00:00,44.4,42.8,28.96,West,264,7.0,12.0,94,0.01,RA,,0.20,214.0,WeatherDisplay:10.37,2013-11-02 11:00:00,
2013-11-02 11:10:00,45.9,44.5,28.97,WSW,249,7.0,12.0,95,0.00,CLR,,0.20,480.0,WeatherDisplay:10.37,2013-11-02 11:10:00,
2013-11-02 11:15:00,46.6,45.2,28.97,WSW,244,9.0,15.0,95,0.00,CLR,,0.20,341.0,WeatherDisplay:10.37,2013-11-02 11:15:00,
2013-11-02 11:20:00,46.8,45.2,28.97,WSW,242,10.0,17.0,94,0.00,CLR,,0.20,207.0,WeatherDisplay:10.37,2013-11-02 11:20:00,
2013-11-02 11:30:00,46.8,44.9,28.97,WSW,245,10.0,17.0,93,0.00,SCT,,0.20,153.0,WeatherDisplay:10.37,2013-11-02 11:30:00,
2013-11-02 11:40:00,48.4,46.4,28.97,WSW,238,12.0,22.0,93,0.00,CLR,,0.20,364.0,WeatherDisplay:10.37,2013-11-02 11:40:00,
2013-11-02 11:50:00,47.9,44.5,28.98,WSW,248,13.0,22.0,88,0.00,SCT,,0.20,95.0,WeatherDisplay:10.37,2013-11-02 11:50:00,
2013-11-02 11:55:00,47.4,44.0,28.98,WSW,242,12.0,20.0,88,0.00,BKN,,0.20,123.0,WeatherDisplay:10.37,2013-11-02 11:55:00,
2013-11-02 12:01:00,47.2,44.1,28.99,WSW,248,9.0,17.0,89,0.00,BKN,,0.20,155.0,WeatherDisplay:10.37,2013-11-02 12:01:00,
2013-11-02 12:10:00,47.6,44.9,28.99,WSW,245,14.0,20.0,90,0.00,FEW,,0.20,371.0,WeatherDisplay:10.37,2013-11-02 12:10:00,
2013-11-02 12:15:00,48.4,45.3,28.99,WSW,244,15.0,23.0,89,0.00,CLR,,0.20,403.0,WeatherDisplay:10.37,2013-11-02 12:15:00,
2013-11-02 12:20:00,49.0,45.6,28.99,WSW,245,13.0,25.0,88,0.00,CLR,,0.20,443.0,WeatherDisplay:10.37,2013-11-02 12:20:00,
2013-11-02 12:30:00,50.2,45.9,28.99,WSW,245,12.0,23.0,85,0.00,CLR,,0.20,540.0,WeatherDisplay:10.37,2013-11-02 12:30:00,
2013-11-02 12:40:00,49.5,44.6,29.00,WSW,237,14.0,25.0,83,0.01,RA,,0.20,25.0,WeatherDisplay:10.37,2013-11-02 12:40:00,
2013-11-02 12:45:00,47.8,43.2,29.00,WSW,249,15.0,24.0,84,0.00,RA,,0.20,25.0,WeatherDisplay:10.37,2013-11-02 12:45:00,
2013-11-02 12:50:00,46.9,43.9,29.01,WSW,253,13.0,26.0,89,0.01,RA,,0.21,77.0,WeatherDisplay:10.37,2013-11-02 12:50:00,
2013-11-02 12:55:00,46.6,43.8,29.01,WSW,256,10.0,22.0,90,0.00,RA,,0.21,104.0,WeatherDisplay:10.37,2013-11-02 12:55:00,
2013-11-02 13:01:00,46.2,43.4,29.02,WSW,256,15.0,24.0,90,0.00,BKN,,0.21,114.0,WeatherDisplay:10.37,2013-11-02 13:01:00,
2013-11-02 13:10:00,45.9,43.5,29.03,West,261,12.0,20.0,91,0.01,RA,,0.22,104.0,WeatherDisplay:10.37,2013-11-02 13:10:00,
2013-11-02 13:15:00,45.9,43.4,29.03,West,265,13.0,21.0,91,0.00,RA,,0.22,149.0,WeatherDisplay:10.37,2013-11-02 13:15:00,
2013-11-02 13:21:00,46.0,43.8,29.04,West,267,16.0,27.0,92,0.00,BKN,,0.22,158.0,WeatherDisplay:10.37,2013-11-02 13:21:00,
2013-11-02 13:31:00,46.1,43.6,29.06,West,275,16.0,25.0,91,0.00,BKN,,0.22,81.0,WeatherDisplay:10.37,2013-11-02 13:31:00,
2013-11-02 13:41:00,46.3,43.8,29.07,West,281,16.0,20.0,91,0.00,SCT,,0.22,204.0,WeatherDisplay:10.37,2013-11-02 13:41:00,
2013-11-02 13:45:00,46.6,43.8,29.08,West,277,15.0,22.0,90,0.00,SCT,,0.22,204.0,WeatherDisplay:10.37,2013-11-02 13:45:00,
2013-11-02 13:50:00,47.1,44.0,29.09,WNW,282,13.0,22.0,89,0.00,FEW,,0.22,244.0,WeatherDisplay:10.37,2013-11-02 13:50:00,
2013-11-02 14:01:00,48.0,43.7,29.10,WNW,285,14.0,25.0,85,0.00,FEW,,0.22,144.0,WeatherDisplay:10.37,2013-11-02 14:01:00,
2013-11-02 14:10:00,47.8,43.2,29.12,WNW,282,13.0,18.0,84,0.00,BKN,,0.22,67.0,WeatherDisplay:10.37,2013-11-02 14:10:00,
2013-11-02 14:16:00,47.7,43.1,29.13,West,275,10.0,16.0,84,0.00,BKN,,0.22,334.0,WeatherDisplay:10.37,2013-11-02 14:16:00,
2013-11-02 14:21:00,47.8,43.5,29.14,WNW,287,13.0,24.0,85,0.00,FEW,,0.22,69.0,WeatherDisplay:10.37,2013-11-02 14:21:00,
2013-11-02 14:31:00,47.1,43.1,29.15,WNW,286,13.0,21.0,86,0.01,RA,,0.23,104.0,WeatherDisplay:10.37,2013-11-02 14:31:00,
2013-11-02 14:41:00,46.0,42.7,29.17,WNW,285,12.0,27.0,88,0.01,RA,,0.24,74.0,WeatherDisplay:10.37,2013-11-02 14:41:00,
2013-11-02 14:46:00,45.6,42.6,29.17,WNW,283,13.0,26.0,89,0.00,RA,,0.24,84.0,WeatherDisplay:10.37,2013-11-02 14:46:00,
2013-11-02 14:51:00,45.5,42.8,29.18,WNW,287,12.0,20.0,90,0.00,BKN,,0.24,176.0,WeatherDisplay:10.37,2013-11-02 14:51:00,
2013-11-02 14:56:00,45.7,42.9,29.19,West,274,12.0,26.0,90,0.00,SCT,,0.24,58.0,WeatherDisplay:10.37,2013-11-02 14:56:00,
2013-11-02 15:01:00,45.8,43.0,29.19,West,268,12.0,20.0,90,0.00,SCT,,0.24,54.0,WeatherDisplay:10.37,2013-11-02 15:01:00,
2013-11-02 15:11:00,46.3,43.3,29.21,West,279,9.0,20.0,89,0.00,SCT,,0.24,88.0,WeatherDisplay:10.37,2013-11-02 15:11:00,
2013-11-02 15:16:00,46.5,43.1,29.21,West,276,14.0,23.0,88,0.00,BKN,,0.24,23.0,WeatherDisplay:10.37,2013-11-02 15:16:00,
2013-11-02 15:21:00,46.6,43.2,29.22,WNW,289,12.0,20.0,88,0.01,RA,,0.25,49.0,WeatherDisplay:10.37,2013-11-02 15:21:00,
2013-11-02 15:26:00,46.6,43.5,29.22,WNW,292,13.0,21.0,89,0.00,RA,,0.25,107.0,WeatherDisplay:10.37,2013-11-02 15:26:00,
2013-11-02 15:31:00,46.4,43.1,29.23,WNW,285,15.0,24.0,88,0.00,SCT,,0.25,67.0,WeatherDisplay:10.37,2013-11-02 15:31:00,
2013-11-02 15:41:00,46.0,42.6,29.24,West,280,15.0,23.0,88,0.00,BKN,,0.25,32.0,WeatherDisplay:10.37,2013-11-02 15:41:00,
2013-11-02 15:46:00,45.9,42.5,29.25,WNW,284,8.0,22.0,88,0.00,BKN,,0.25,111.0,WeatherDisplay:10.37,2013-11-02 15:46:00,
2013-11-02 15:51:00,46.1,42.8,29.25,WNW,287,10.0,20.0,88,0.00,SCT,,0.25,67.0,WeatherDisplay:10.37,2013-11-02 15:51:00,
2013-11-02 15:56:00,46.2,42.6,29.26,West,276,12.0,21.0,87,0.00,SCT,,0.25,35.0,WeatherDisplay:10.37,2013-11-02 15:56:00,
2013-11-02 16:01:00,46.2,42.5,29.27,West,281,15.0,23.0,87,0.01,RA,,0.26,21.0,WeatherDisplay:10.37,2013-11-02 16:01:00,
2013-11-02 16:11:00,45.3,41.9,29.28,West,280,12.0,20.0,88,0.00,RA,,0.27,26.0,WeatherDisplay:10.37,2013-11-02 16:11:00,
2013-11-02 16:16:00,44.9,41.9,29.29,West,281,9.0,17.0,89,0.00,BKN,,0.27,37.0,WeatherDisplay:10.37,2013-11-02 16:16:00,
2013-11-02 16:21:00,44.8,41.8,29.29,West,281,9.0,18.0,89,0.00,BKN,,0.27,18.0,WeatherDisplay:10.37,2013-11-02 16:21:00,
2013-11-02 16:26:00,44.8,41.7,29.30,WNW,282,9.0,18.0,89,0.00,BKN,,0.27,18.0,WeatherDisplay:10.37,2013-11-02 16:26:00,
2013-11-02 16:31:00,44.8,41.8,29.30,WNW,287,12.0,18.0,89,0.00,BKN,,0.27,19.0,WeatherDisplay:10.37,2013-11-02 16:31:00,
2013-11-02 16:41:00,44.8,41.8,29.31,WNW,292,8.0,16.0,89,0.00,BKN,,0.27,18.0,WeatherDisplay:10.37,2013-11-02 16:41:00,
2013-11-02 16:46:00,44.7,41.7,29.32,WNW,286,7.0,14.0,89,0.00,BKN,,0.27,12.0,WeatherDisplay:10.37,2013-11-02 16:46:00,
2013-11-02 16:51:00,44.7,41.4,29.33,West,276,9.0,17.0,88,0.00,CLR,,0.27,19.0,WeatherDisplay:10.37,2013-11-02 16:51:00,
2013-11-02 17:01:00,44.9,41.3,29.34,West,267,10.0,17.0,87,0.00,OVC,,0.27,0.0,WeatherDisplay:10.37,2013-11-02 17:01:00,
2013-11-02 17:11:00,45.0,41.1,29.34,West,277,13.0,27.0,86,0.00,OVC,,0.27,0.0,WeatherDisplay:10.37,2013-11-02 17:11:00,
2013-11-02 17:16:00,44.9,41.0,29.34,WNW,283,12.0,17.0,86,0.00,OVC,,0.27,0.0,WeatherDisplay:10.37,2013-11-02 17:16:00,
2013-11-02 17:21:00,44.6,40.7,29.34,West,274,13.0,18.0,86,0.00,OVC,,0.27,0.0,WeatherDisplay:10.37,2013-11-02 17:21:00,
2013-11-02 17:26:00,44.4,40.5,29.35,West,273,9.0,14.0,86,0.00,OVC,,0.27,0.0,WeatherDisplay:10.37,2013-11-02 17:26:00,
2013-11-02 17:31:00,44.3,40.1,29.35,West,276,12.0,17.0,85,0.00,OVC,,0.27,0.0,WeatherDisplay:10.37,2013-11-02 17:31:00,
2013-11-02 17:41:00,44.4,40.2,29.36,WSW,256,8.0,14.0,85,0.00,CLR,,0.27,0.0,WeatherDisplay:10.37,2013-11-02 17:41:00,
2013-11-02 17:46:00,44.4,40.5,29.36,WSW,256,8.0,13.0,86,0.00,CLR,,0.27,0.0,WeatherDisplay:10.37,2013-11-02 17:46:00,
2013-11-02 17:51:00,44.6,40.7,29.37,West,260,10.0,15.0,86,0.00,CLR,,0.27,0.0,WeatherDisplay:10.37,2013-11-02 17:51:00,
2013-11-02 18:01:00,45.0,40.8,29.37,West,259,7.0,13.0,85,0.00,CLR,,0.27,0.0,WeatherDisplay:10.37,2013-11-02 18:01:00,
2013-11-02 18:11:00,44.8,40.0,29.38,WSW,257,8.0,14.0,83,0.00,CLR,,0.27,0.0,WeatherDisplay:10.37,2013-11-02 18:11:00,
2013-11-02 18:16:00,44.9,39.7,29.38,West,259,12.0,15.0,82,0.00,CLR,,0.27,0.0,WeatherDisplay:10.37,2013-11-02 18:16:00,
2013-11-02 18:21:00,45.0,39.6,29.38,WSW,257,9.0,16.0,81,0.00,CLR,,0.27,0.0,WeatherDisplay:10.37,2013-11-02 18:21:00,
2013-11-02 18:26:00,45.2,39.7,29.39,WSW,257,9.0,15.0,81,0.00,CLR,,0.27,0.0,WeatherDisplay:10.37,2013-11-02 18:26:00,
2013-11-02 18:31:00,45.2,39.4,29.39,West,259,9.0,14.0,80,0.00,CLR,,0.27,0.0,WeatherDisplay:10.37,2013-11-02 18:31:00,
2013-11-02 18:41:00,44.8,39.4,29.41,WSW,245,8.0,14.0,81,0.00,CLR,,0.27,0.0,WeatherDisplay:10.37,2013-11-02 18:41:00,
2013-11-02 18:46:00,44.7,39.9,29.41,WSW,253,12.0,16.0,83,0.00,CLR,,0.27,0.0,WeatherDisplay:10.37,2013-11-02 18:46:00,
2013-11-02 18:56:00,44.3,40.0,29.41,West,266,8.0,12.0,85,0.00,CLR,,0.27,0.0,WeatherDisplay:10.37,2013-11-02 18:56:00,
2013-11-02 19:01:00,44.0,39.8,29.41,West,265,8.0,12.0,85,0.00,CLR,,0.27,0.0,WeatherDisplay:10.37,2013-11-02 19:01:00,
2013-11-02 19:11:00,43.8,39.9,29.42,WSW,258,6.0,12.0,86,0.00,CLR,,0.27,0.0,WeatherDisplay:10.37,2013-11-02 19:11:00,
2013-11-02 19:16:00,43.7,39.8,29.42,WSW,255,6.0,8.0,86,0.00,CLR,,0.27,0.0,WeatherDisplay:10.37,2013-11-02 19:16:00,
2013-11-02 19:21:00,43.6,39.7,29.42,WSW,251,6.0,9.0,86,0.00,CLR,,0.27,0.0,WeatherDisplay:10.37,2013-11-02 19:21:00,
2013-11-02 19:31:00,43.2,39.3,29.42,WSW,247,5.0,9.0,86,0.00,CLR,,0.27,0.0,WeatherDisplay:10.37,2013-11-02 19:31:00,
2013-11-02 19:41:00,42.6,38.7,29.43,WSW,246,7.0,9.0,86,0.00,CLR,,0.27,0.0,WeatherDisplay:10.37,2013-11-02 19:41:00,
2013-11-02 19:46:00,42.3,38.4,29.43,WSW,243,6.0,10.0,86,0.00,CLR,,0.27,0.0,WeatherDisplay:10.37,2013-11-02 19:46:00,
2013-11-02 19:51:00,42.5,38.9,29.43,WSW,245,8.0,12.0,87,0.00,CLR,,0.27,0.0,WeatherDisplay:10.37,2013-11-02 19:51:00,
2013-11-02 20:01:00,43.7,40.1,29.43,WSW,249,9.0,14.0,87,0.00,CLR,,0.27,0.0,WeatherDisplay:10.37,2013-11-02 20:01:00,
2013-11-02 20:11:00,44.2,39.7,29.43,WSW,258,10.0,16.0,84,0.00,CLR,,0.27,0.0,WeatherDisplay:10.37,2013-11-02 20:11:00,
2013-11-02 20:16:00,44.3,39.2,29.43,West,264,8.0,14.0,82,0.00,CLR,,0.27,0.0,WeatherDisplay:10.37,2013-11-02 20:16:00,
2013-11-02 20:21:00,44.4,38.9,29.43,West,268,13.0,16.0,81,0.00,CLR,,0.27,0.0,WeatherDisplay:10.37,2013-11-02 20:21:00,
2013-11-02 20:26:00,44.5,38.4,29.43,West,263,9.0,17.0,79,0.00,CLR,,0.27,0.0,WeatherDisplay:10.37,2013-11-02 20:26:00,
2013-11-02 20:31:00,44.2,37.8,29.43,West,259,9.0,13.0,78,0.00,CLR,,0.27,0.0,WeatherDisplay:10.37,2013-11-02 20:31:00,
2013-11-02 20:41:00,43.9,37.2,29.44,WSW,252,8.0,12.0,77,0.00,CLR,,0.27,0.0,WeatherDisplay:10.37,2013-11-02 20:41:00,
2013-11-02 20:46:00,43.8,37.4,29.44,WSW,245,7.0,12.0,78,0.00,CLR,,0.27,0.0,WeatherDisplay:10.37,2013-11-02 20:46:00,
2013-11-02 20:51:00,43.5,37.4,29.45,WSW,240,7.0,10.0,79,0.00,CLR,,0.27,0.0,WeatherDisplay:10.37,2013-11-02 20:51:00,
2013-11-02 21:01:00,43.4,37.3,29.45,WSW,244,7.0,12.0,79,0.00,CLR,,0.27,0.0,WeatherDisplay:10.37,2013-11-02 21:01:00,
2013-11-02 21:11:00,43.5,38.7,29.46,WSW,247,8.0,14.0,83,0.00,RA,,0.28,0.0,WeatherDisplay:10.37,2013-11-02 21:11:00,
2013-11-02 21:16:00,43.4,38.9,29.46,SW,235,12.0,20.0,84,0.00,RA,,0.28,0.0,WeatherDisplay:10.37,2013-11-02 21:16:00,
2013-11-02 21:26:00,43.7,40.4,29.46,WSW,251,8.0,12.0,88,0.00,RA,,0.28,0.0,WeatherDisplay:10.37,2013-11-02 21:26:00,
2013-11-02 21:31:00,43.5,40.2,29.46,WSW,248,6.0,10.0,88,0.00,CLR,,0.28,0.0,WeatherDisplay:10.37,2013-11-02 21:31:00,
2013-11-02 21:41:00,43.1,40.1,29.45,SW,234,3.0,8.0,89,0.00,CLR,,0.28,0.0,WeatherDisplay:10.37,2013-11-02 21:41:00,
2013-11-02 21:47:00,42.9,39.9,29.45,SW,231,6.0,8.0,89,0.00,CLR,,0.28,0.0,WeatherDisplay:10.37,2013-11-02 21:47:00,
2013-11-02 21:56:00,43.1,40.1,29.45,SW,232,7.0,10.0,89,0.00,CLR,,0.28,0.0,WeatherDisplay:10.37,2013-11-02 21:56:00,
2013-11-02 22:01:00,43.2,40.1,29.45,SW,236,3.0,8.0,89,0.00,CLR,,0.28,0.0,WeatherDisplay:10.37,2013-11-02 22:01:00,
2013-11-02 22:11:00,43.2,40.2,29.46,WSW,238,5.0,6.0,89,0.00,CLR,,0.28,0.0,WeatherDisplay:10.37,2013-11-02 22:11:00,
2013-11-02 22:20:00,43.3,40.6,29.46,WSW,238,3.0,9.0,90,0.00,CLR,,0.28,0.0,WeatherDisplay:10.37,2013-11-02 22:20:00,
2013-11-02 22:30:00,43.6,40.9,29.46,WSW,246,3.0,7.0,90,0.00,CLR,,0.28,0.0,WeatherDisplay:10.37,2013-11-02 22:30:00,
2013-11-02 22:40:00,43.8,41.1,29.45,WSW,244,5.0,8.0,90,0.00,CLR,,0.28,0.0,WeatherDisplay:10.37,2013-11-02 22:40:00,
2013-11-02 22:50:00,43.6,40.9,29.45,WSW,240,3.0,7.0,90,0.00,CLR,,0.28,0.0,WeatherDisplay:10.37,2013-11-02 22:50:00,
2013-11-02 22:55:00,43.4,40.7,29.45,WSW,241,5.0,9.0,90,0.00,CLR,,0.28,0.0,WeatherDisplay:10.37,2013-11-02 22:55:00,
2013-11-02 23:00:00,43.3,40.6,29.45,WSW,243,2.0,6.0,90,0.00,CLR,,0.28,0.0,WeatherDisplay:10.37,2013-11-02 23:00:00,
2013-11-02 23:10:00,42.9,39.9,29.45,WSW,244,3.0,6.0,89,0.00,CLR,,0.28,0.0,WeatherDisplay:10.37,2013-11-02 23:10:00,
2013-11-02 23:15:00,42.7,39.7,29.45,WSW,244,3.0,7.0,89,0.00,CLR,,0.28,0.0,WeatherDisplay:10.37,2013-11-02 23:15:00,
2013-11-02 23:20:00,42.7,39.9,29.45,WSW,244,6.0,9.0,90,0.00,CLR,,0.28,0.0,WeatherDisplay:10.37,2013-11-02 23:20:00,
2013-11-02 23:25:00,42.9,40.5,29.45,WSW,244,6.0,7.0,91,0.00,CLR,,0.28,0.0,WeatherDisplay:10.37,2013-11-02 23:25:00,
2013-11-02 23:30:00,43.1,40.7,29.45,WSW,244,5.0,7.0,91,0.00,CLR,,0.28,0.0,WeatherDisplay:10.37,2013-11-02 23:30:00,
2013-11-02 23:40:00,43.2,40.7,29.46,WSW,244,2.0,7.0,91,0.00,CLR,,0.28,0.0,WeatherDisplay:10.37,2013-11-02 23:40:00,
2013-11-02 23:45:00,43.1,40.7,29.46,WSW,244,5.0,8.0,91,0.00,CLR,,0.28,0.0,WeatherDisplay:10.37,2013-11-02 23:45:00,
2013-11-02 23:50:00,43.2,40.8,29.46,WSW,247,5.0,12.0,91,0.00,CLR,,0.28,0.0,WeatherDisplay:10.37,2013-11-02 23:50:00,